Time;durP1;ratioP1;P1;durP2;ratioP2;P2;SDS_P1;SDS_P2;PMS_P1;PMS_P2;Temp;Humidity;BMP_temperature;BMP_pressure;BME280_temperature;BME280_humidity;BME280_pressure;Samples;Min_cycle;Max_cycle;Signal;HPM_P1;HPM_P2
2021/12/31 00:00:47;;;;;;;13.95;9.07;;;;;;;7.88;73.72;100054.69;5318597;26;34945;-91
2021/12/31 00:03:17;;;;;;;15.15;9.65;;;;;;;7.85;73.61;100060.72;5318618;26;33907;-90
2021/12/31 00:05:46;;;;;;;14.13;9.18;;;;;;;7.79;73.92;100050.34;5319698;26;33771;-91
2021/12/31 00:08:15;;;;;;;14.70;9.00;;;;;;;7.87;73.53;100061.56;5324587;26;35163;-91
2021/12/31 00:10:44;;;;;;;13.23;8.73;;;;;;;7.83;73.84;100069.31;5338709;26;33787;-91
2021/12/31 00:13:14;;;;;;;16.25;9.90;;;;;;;7.87;73.57;100076.19;5317754;26;34645;-91
2021/12/31 00:15:43;;;;;;;13.57;8.80;;;;;;;7.94;73.28;100072.78;5318820;26;34864;-90
2021/12/31 00:18:13;;;;;;;13.20;7.95;;;;;;;8.11;72.63;100068.53;5318126;26;32227;-91
2021/12/31 00:20:42;;;;;;;12.80;8.55;;;;;;;8.15;72.40;100065.97;5324297;26;33311;-91
2021/12/31 00:23:14;;;;;;;12.77;7.55;;;;;;;8.07;72.66;100064.22;5316747;26;34481;-91
2021/12/31 00:25:44;;;;;;;15.35;8.25;;;;;;;7.92;73.23;100061.59;5318442;26;33667;-91
2021/12/31 00:28:15;;;;;;;11.30;8.00;;;;;;;8.01;73.12;100055.59;5318265;26;33964;-91
2021/12/31 00:30:44;;;;;;;11.85;7.87;;;;;;;7.96;73.19;100062.47;5317446;26;34490;-91
2021/12/31 00:33:14;;;;;;;11.50;7.70;;;;;;;8.12;72.83;100056.50;5318343;26;33531;-91
2021/12/31 00:35:42;;;;;;;13.07;7.95;;;;;;;8.04;73.17;100055.59;5324168;26;33710;-90
2021/12/31 00:38:11;;;;;;;12.73;8.43;;;;;;;8.01;73.27;100051.28;5317906;26;34058;-91
2021/12/31 00:40:40;;;;;;;12.90;7.93;;;;;;;8.23;72.40;100059.09;5317839;26;34544;-91
2021/12/31 00:43:11;;;;;;;11.05;6.90;;;;;;;8.09;72.89;100056.47;5317202;26;33659;-91
2021/12/31 00:45:42;;;;;;;10.27;6.65;;;;;;;8.11;73.21;100062.50;5317356;26;33396;-91
2021/12/31 00:48:11;;;;;;;;;;;;;;;8.07;73.20;100059.06;5345332;26;33989;-91
2021/12/31 00:50:41;;;;;;;12.15;7.70;;;;;;;7.98;73.43;100059.03;5316634;26;34048;-90
2021/12/31 00:53:11;;;;;;;9.85;7.20;;;;;;;7.87;74.28;100069.31;5315340;26;36781;-91
2021/12/31 00:55:41;;;;;;;11.52;6.95;;;;;;;7.96;73.70;100068.50;5315690;26;33701;-91
2021/12/31 00:58:10;;;;;;;10.17;5.77;;;;;;;8.08;73.46;100058.19;5316649;26;35234;-91
2021/12/31 01:00:39;;;;;;;12.20;7.05;;;;;;;8.01;73.62;100069.38;5323590;26;33713;-91
2021/12/31 01:03:10;;;;;;;7.93;5.55;;;;;;;8.04;73.47;100066.78;5316849;26;33287;-91
2021/12/31 01:05:40;;;;;;;8.93;6.97;;;;;;;8.05;73.67;100063.38;5317380;26;33859;-91
2021/12/31 01:08:08;;;;;;;10.00;6.28;;;;;;;8.16;73.27;100065.09;5318013;26;33881;-91
2021/12/31 01:10:37;;;;;;;8.65;5.32;;;;;;;8.18;73.30;100072.00;5339715;26;33433;-91
2021/12/31 01:13:11;;;;;;;9.38;4.82;;;;;;;8.03;73.95;100062.50;5342929;26;33685;-91
2021/12/31 01:15:43;;;;;;;8.65;6.35;;;;;;;8.21;73.26;100079.75;5316999;26;34340;-91
2021/12/31 01:19:43;;;;;;;7.87;5.07;;;;;;;8.07;73.84;100073.69;5320365;26;34829;-91
2021/12/31 01:21:12;;;;;;;9.50;5.40;;;;;;;8.04;74.04;100074.53;5317061;26;34060;-91
2021/12/31 01:23:41;;;;;;;9.93;6.05;;;;;;;8.09;73.85;100074.56;5337805;26;34066;-91
2021/12/31 01:26:10;;;;;;;9.00;5.90;;;;;;;8.38;73.00;100082.38;5338123;26;34142;-91
2021/12/31 01:28:39;;;;;;;13.65;6.85;;;;;;;8.34;73.13;100076.34;5324536;26;33943;-90
2021/12/31 01:31:08;;;;;;;11.23;6.87;;;;;;;8.20;73.75;100075.47;5317943;26;34083;-91
2021/12/31 01:33:38;;;;;;;11.38;6.70;;;;;;;8.31;73.34;100078.94;5318205;26;32498;-90
2021/12/31 01:36:07;;;;;;;10.88;5.70;;;;;;;8.29;73.47;100079.81;5319247;26;32151;-91
2021/12/31 01:38:36;;;;;;;13.68;6.53;;;;;;;8.26;73.51;100082.34;5318108;26;34858;-92
2021/12/31 01:41:05;;;;;;;9.40;6.60;;;;;;;8.19;73.72;100078.03;5324302;26;34164;-90
2021/12/31 01:43:34;;;;;;;9.65;5.68;;;;;;;8.25;73.60;100073.75;5318038;26;33585;-91
2021/12/31 01:46:11;;;;;;;8.52;5.40;;;;;;;8.16;74.03;100078.03;5338375;26;33499;-91
2021/12/31 01:49:01;;;;;;;8.52;5.40;;;;;;;8.28;73.54;100071.16;5337362;26;33850;-90
2021/12/31 01:51:31;;;;;;;11.15;5.65;;;;;;;8.42;73.28;100070.38;5317401;26;34441;-90
2021/12/31 01:53:59;;;;;;;9.60;5.28;;;;;;;8.10;74.73;100079.75;5337837;26;33438;-91
2021/12/31 01:56:29;;;;;;;9.68;5.85;;;;;;;8.26;73.89;100075.50;5324544;26;34831;-90
2021/12/31 01:58:58;;;;;;;11.10;7.20;;;;;;;8.07;74.77;100076.25;5316444;26;36820;-90
2021/12/31 02:01:27;;;;;;;8.90;6.20;;;;;;;8.30;73.76;100079.78;5316078;26;34255;-91
2021/12/31 02:03:59;;;;;;;12.10;6.80;;;;;;;8.23;74.41;100080.63;5336924;26;33577;-91
2021/12/31 02:06:28;;;;;;;9.93;6.22;;;;;;;8.25;74.22;100072.88;5336724;26;34588;-90
2021/12/31 02:08:57;;;;;;;10.48;5.35;;;;;;;8.33;74.38;100084.09;5317267;26;33911;-91
2021/12/31 02:11:28;;;;;;;9.57;5.85;;;;;;;8.26;74.57;100077.19;5323421;26;34664;-91
2021/12/31 02:13:57;;;;;;;8.73;6.05;;;;;;;8.44;74.16;100081.59;5316157;26;33858;-91
2021/12/31 02:16:26;;;;;;;10.50;5.47;;;;;;;8.48;74.13;100088.47;5317192;26;33994;-91
2021/12/31 02:18:55;;;;;;;7.50;5.18;;;;;;;8.65;73.49;100088.50;5317804;26;32976;-91
2021/12/31 02:21:25;;;;;;;9.13;5.65;;;;;;;8.58;73.95;100072.13;5317704;26;32207;-91
2021/12/31 02:24:01;;;;;;;8.70;4.75;;;;;;;8.75;73.55;100065.22;5322870;26;34467;-91
2021/12/31 02:26:31;;;;;;;9.57;5.47;;;;;;;8.61;74.28;100073.84;5337925;26;33883;-90
2021/12/31 02:28:59;;;;;;;11.15;6.45;;;;;;;8.86;73.69;100069.53;5317220;26;34665;-91
2021/12/31 02:31:31;;;;;;;;;;;;;;;8.67;74.18;100063.50;5317725;26;32408;-91
2021/12/31 02:33:59;;;;;;;8.80;5.68;;;;;;;8.67;74.31;100066.94;5336831;26;33022;-90
2021/12/31 02:36:29;;;;;;;8.57;6.25;;;;;;;8.70;74.25;100059.19;5343790;26;34670;-91
2021/12/31 02:38:59;;;;;;;9.87;6.07;;;;;;;8.54;74.35;100063.47;5316860;26;33790;-90
2021/12/31 02:41:28;;;;;;;8.20;5.20;;;;;;;8.38;75.25;100059.12;5317535;26;33901;-91
2021/12/31 02:43:56;;;;;;;9.88;5.68;;;;;;;8.44;74.69;100054.00;5315987;26;33263;-90
2021/12/31 02:46:25;;;;;;;9.85;5.32;;;;;;;8.47;74.15;100056.56;5317448;26;34076;-90
2021/12/31 02:48:57;;;;;;;11.55;5.55;;;;;;;8.48;73.92;100054.84;5323589;26;35378;-90
2021/12/31 02:51:30;;;;;;;10.30;6.43;;;;;;;8.43;73.69;100052.28;5317321;26;34152;-91
2021/12/31 02:54:00;;;;;;;9.23;5.00;;;;;;;8.57;73.41;100041.09;5338703;26;32784;-91
2021/12/31 02:56:29;;;;;;;11.43;6.13;;;;;;;8.49;73.37;100041.94;5318765;26;34042;-90
2021/12/31 02:59:00;;;;;;;11.45;6.28;;;;;;;8.22;73.91;100047.03;5317849;26;34034;-91
2021/12/31 03:01:29;;;;;;;9.38;5.03;;;;;;;8.24;73.91;100038.44;5344950;26;33541;-90
2021/12/31 03:03:58;;;;;;;8.48;5.25;;;;;;;8.26;73.59;100036.72;5338847;26;33302;-91
2021/12/31 03:06:30;;;;;;;8.73;5.28;;;;;;;8.32;73.29;100039.28;5318461;26;33996;-91
2021/12/31 03:08:59;;;;;;;11.48;6.53;;;;;;;8.61;72.80;100032.47;5318948;26;31889;-91
2021/12/31 03:11:29;;;;;;;9.93;5.72;;;;;;;8.81;72.28;100042.81;5318458;26;34671;-90
2021/12/31 03:14:00;;;;;;;9.15;6.07;;;;;;;8.80;72.82;100051.44;5318575;26;31246;-91
2021/12/31 03:16:29;;;;;;;14.20;6.87;;;;;;;8.59;73.40;100044.53;5345026;26;33981;-90
2021/12/31 03:18:58;;;;;;;7.85;4.50;;;;;;;8.73;73.13;100042.81;5318430;26;34580;-90
2021/12/31 03:21:27;;;;;;;10.98;5.30;;;;;;;8.62;73.53;100044.53;5338470;26;33096;-91
2021/12/31 03:23:58;;;;;;;6.85;4.68;;;;;;;8.63;73.47;100036.78;5318858;26;32294;-90
2021/12/31 03:26:27;;;;;;;9.38;5.07;;;;;;;8.60;73.79;100038.47;5318465;26;34777;-90
2021/12/31 03:28:56;;;;;;;9.32;4.62;;;;;;;8.47;74.11;100038.47;5325074;26;33856;-90
2021/12/31 03:31:25;;;;;;;8.35;5.30;;;;;;;8.26;74.52;100030.66;5318668;26;34084;-92
2021/12/31 03:33:54;;;;;;;9.27;5.85;;;;;;;8.24;74.51;100042.72;5317992;26;34304;-90
2021/12/31 03:36:23;;;;;;;10.38;5.05;;;;;;;8.39;73.94;100042.75;5317509;26;34778;-90
2021/12/31 03:38:51;;;;;;;9.30;5.22;;;;;;;8.29;73.93;100034.13;5339133;26;34313;-89
2021/12/31 03:41:22;;;;;;;8.70;4.87;;;;;;;8.36;74.07;100027.25;5323940;26;34629;-90
2021/12/31 03:43:50;;;;;;;8.38;5.50;;;;;;;8.05;74.76;100024.59;5318594;26;34736;-91
2021/12/31 03:46:19;;;;;;;9.18;5.07;;;;;;;7.97;74.91;100022.84;5338586;26;33588;-90
2021/12/31 03:48:48;;;;;;;7.70;4.45;;;;;;;7.99;74.78;100028.88;5318313;26;35099;-91
2021/12/31 03:51:17;;;;;;;9.77;5.35;;;;;;;8.25;73.76;100024.63;5318619;26;33726;-90
2021/12/31 03:53:46;;;;;;;9.07;5.55;;;;;;;8.19;73.93;100026.34;5319431;26;34209;-90
2021/12/31 03:56:19;;;;;;;6.60;4.95;;;;;;;8.17;73.63;100026.34;5324242;26;34480;-89
2021/12/31 03:58:49;;;;;;;7.85;4.68;;;;;;;8.13;73.96;100025.47;5317958;26;34951;-90
2021/12/31 04:01:18;;;;;;;9.47;4.90;;;;;;;8.24;73.56;100033.25;5340069;26;33318;-90
2021/12/31 04:03:48;;;;;;;9.43;5.28;;;;;;;8.05;74.35;100028.91;5318630;26;31227;-90
2021/12/31 04:06:17;;;;;;;8.48;6.18;;;;;;;8.17;73.90;100036.69;5324324;26;33786;-91
2021/12/31 04:08:45;;;;;;;7.82;4.62;;;;;;;8.23;73.72;100038.41;5317826;26;35453;-91
2021/12/31 04:11:14;;;;;;;7.68;4.43;;;;;;;8.28;73.65;100039.28;5337693;26;33543;-89
2021/12/31 04:13:43;;;;;;;6.57;4.20;;;;;;;8.15;74.05;100035.81;5338078;26;33868;-91
2021/12/31 04:16:13;;;;;;;6.25;3.87;;;;;;;7.92;75.14;100035.75;5338224;26;33841;-90
2021/12/31 04:18:43;;;;;;;5.72;3.75;;;;;;;7.82;75.54;100029.69;5324991;26;33698;-90
2021/12/31 04:21:15;;;;;;;8.55;5.50;;;;;;;8.13;74.67;100030.63;5317457;26;34784;-90
2021/12/31 04:23:51;;;;;;;6.50;3.95;;;;;;;8.27;74.32;100022.06;5336302;26;33349;-91
2021/12/31 04:26:22;;;;;;;8.00;4.35;;;;;;;8.18;74.66;100028.06;5336853;26;33730;-91
2021/12/31 04:28:51;;;;;;;8.52;5.15;;;;;;;8.30;74.75;100025.50;5317048;26;35227;-90
2021/12/31 04:31:21;;;;;;;6.85;3.97;;;;;;;8.13;75.53;100030.63;5317745;26;35262;-90
2021/12/31 04:33:50;;;;;;;6.65;3.90;;;;;;;8.52;74.62;100026.41;5324375;26;35449;-90
2021/12/31 04:36:19;;;;;;;7.40;4.45;;;;;;;8.68;74.40;100027.28;5338297;26;33485;-91
2021/12/31 04:38:48;;;;;;;8.32;4.00;;;;;;;8.58;74.91;100029.84;5318249;26;34842;-90
2021/12/31 04:41:16;;;;;;;8.50;4.72;;;;;;;8.53;75.38;100030.75;5338572;26;33562;-90
2021/12/31 04:43:45;;;;;;;5.60;3.75;;;;;;;8.64;75.31;100027.28;5317482;26;33978;-91
2021/12/31 04:46:14;;;;;;;5.30;3.22;;;;;;;8.69;75.55;100035.91;5344843;26;33519;-90
2021/12/31 04:48:45;;;;;;;5.32;3.00;;;;;;;8.84;75.52;100035.88;5317170;26;35014;-91
2021/12/31 04:51:13;;;;;;;5.75;3.72;;;;;;;8.74;75.83;100032.44;5337689;26;32946;-91
2021/12/31 04:53:42;;;;;;;5.68;3.03;;;;;;;8.96;75.89;100033.31;5318207;26;33732;-91
2021/12/31 04:56:11;;;;;;;5.90;3.17;;;;;;;9.06;76.33;100030.69;5338263;26;33431;-90
2021/12/31 04:58:40;;;;;;;6.45;4.20;;;;;;;8.91;76.89;100032.44;5324958;26;32197;-90
2021/12/31 05:01:09;;;;;;;7.20;4.03;;;;;;;9.22;76.10;100031.53;5322565;26;34310;-91
2021/12/31 05:03:39;;;;;;;6.05;4.05;;;;;;;9.17;76.50;100026.38;5316873;26;34039;-90
2021/12/31 05:06:09;;;;;;;6.07;3.72;;;;;;;9.12;76.92;100030.69;5317548;26;34332;-91
2021/12/31 05:08:38;;;;;;;5.65;3.37;;;;;;;9.21;77.12;100035.00;5317478;26;34590;-91
2021/12/31 05:11:09;;;;;;;;;;;;;;;9.21;77.15;100035.00;5317599;26;34251;-92
2021/12/31 05:13:38;;;;;;;5.30;3.00;;;;;;;9.35;77.00;100039.28;5324646;26;33182;-90
2021/12/31 05:16:07;;;;;;;6.75;3.97;;;;;;;9.26;77.17;100033.28;5317183;26;34010;-91
2021/12/31 05:18:36;;;;;;;8.05;4.43;;;;;;;9.36;76.85;100041.00;5317915;26;34686;-91
2021/12/31 05:21:05;;;;;;;7.03;4.62;;;;;;;9.31;76.89;100040.16;5337631;26;34399;-90
2021/12/31 05:23:35;;;;;;;7.47;3.60;;;;;;;9.36;75.90;100035.81;5338477;26;33283;-91
2021/12/31 05:26:04;;;;;;;7.60;4.15;;;;;;;9.08;76.83;100040.19;5323089;26;34935;-91
2021/12/31 05:28:34;;;;;;;11.80;5.43;;;;;;;9.05;76.46;100036.75;5317692;26;34342;-91
2021/12/31 05:31:03;;;;;;;6.40;4.00;;;;;;;9.10;75.84;100037.59;5317964;26;35107;-91
2021/12/31 05:33:33;;;;;;;7.50;4.00;;;;;;;9.21;74.57;100040.19;5337834;26;33009;-90
2021/12/31 05:36:02;;;;;;;7.03;4.22;;;;;;;8.96;74.80;100041.09;5319752;26;35514;-90
2021/12/31 05:38:30;;;;;;;7.30;4.53;;;;;;;9.01;74.49;100040.19;5324526;26;34878;-90
2021/12/31 05:41:01;;;;;;;7.18;4.15;;;;;;;8.92;74.70;100044.53;5317666;26;34490;-92
2021/12/31 05:43:30;;;;;;;7.93;4.47;;;;;;;8.93;74.56;100048.81;5317839;26;34631;-92
2021/12/31 05:45:58;;;;;;;5.35;3.53;;;;;;;8.75;75.37;100054.88;5318065;26;34364;-90
2021/12/31 05:48:29;;;;;;;7.32;4.45;;;;;;;8.76;75.08;100054.00;5321840;26;34214;-92
2021/12/31 05:50:58;;;;;;;5.18;4.12;;;;;;;8.85;74.69;100058.34;5324512;26;35240;-91
2021/12/31 05:53:29;;;;;;;6.82;4.07;;;;;;;8.87;74.56;100058.34;5317451;26;33549;-90
2021/12/31 05:55:58;;;;;;;10.10;4.45;;;;;;;8.91;74.45;100058.31;5317726;26;33686;-90
2021/12/31 05:58:28;;;;;;;7.32;4.37;;;;;;;9.02;73.94;100066.09;5337848;26;34623;-91
2021/12/31 06:00:57;;;;;;;7.30;4.45;;;;;;;8.64;75.84;100059.19;5317727;26;33960;-90
2021/12/31 06:03:27;;;;;;;6.90;3.22;;;;;;;8.67;76.01;100058.31;5324223;26;33740;-91
2021/12/31 06:05:56;;;;;;;8.10;4.40;;;;;;;8.68;76.50;100065.22;5317731;26;33939;-91
2021/12/31 06:08:25;;;;;;;6.37;3.75;;;;;;;8.84;76.83;100072.13;5318058;26;34939;-91
2021/12/31 06:10:54;;;;;;;8.18;4.75;;;;;;;8.89;76.81;100072.13;5337689;26;33909;-91
2021/12/31 06:13:23;;;;;;;6.47;4.70;;;;;;;9.36;76.71;100069.47;5317243;26;31684;-91
2021/12/31 06:15:57;;;;;;;5.95;4.12;;;;;;;9.10;78.19;100069.50;5324219;26;34080;-91
2021/12/31 06:18:27;;;;;;;6.28;3.05;;;;;;;9.26;78.14;100062.59;5317136;26;34846;-91
2021/12/31 06:20:56;;;;;;;8.50;4.75;;;;;;;9.25;78.43;100067.78;5317710;26;31305;-90
2021/12/31 06:23:25;;;;;;;8.07;4.65;;;;;;;9.43;77.55;100069.47;5317386;26;34812;-91
2021/12/31 06:25:54;;;;;;;14.75;6.00;;;;;;;9.58;77.36;100077.19;5337771;26;33767;-91
2021/12/31 06:28:23;;;;;;;7.25;4.25;;;;;;;9.59;77.07;100076.31;5320112;26;33926;-90
2021/12/31 06:30:53;;;;;;;7.75;4.82;;;;;;;9.54;76.87;100084.13;5325244;26;34190;-90
2021/12/31 06:33:22;;;;;;;8.47;4.07;;;;;;;9.40;77.18;100076.38;5318208;26;34125;-90
2021/12/31 06:35:51;;;;;;;7.43;3.80;;;;;;;9.49;76.20;100078.06;5318487;26;34270;-91
2021/12/31 06:38:20;;;;;;;9.50;4.30;;;;;;;9.27;76.50;100076.41;5318460;26;32538;-90
2021/12/31 06:40:49;;;;;;;5.75;4.03;;;;;;;9.22;76.16;100085.91;5318586;26;33576;-91
2021/12/31 06:43:18;;;;;;;5.55;3.50;;;;;;;9.09;76.40;100083.34;5345220;26;34153;-91
2021/12/31 06:45:47;;;;;;;5.68;3.45;;;;;;;8.96;77.37;100092.84;5338569;26;34530;-91
2021/12/31 06:48:17;;;;;;;5.78;4.12;;;;;;;8.67;78.49;100094.53;5318502;26;33817;-90
2021/12/31 06:50:46;;;;;;;6.55;4.53;;;;;;;8.69;78.56;100093.66;5318454;26;35332;-91
2021/12/31 06:53:16;;;;;;;6.32;4.00;;;;;;;8.69;78.11;100091.09;5318186;26;33671;-91
2021/12/31 06:55:45;;;;;;;7.53;4.20;;;;;;;8.60;78.69;100088.50;5325136;26;35436;-90
2021/12/31 06:58:13;;;;;;;8.02;4.57;;;;;;;8.30;79.69;100084.09;5317444;26;34058;-91
2021/12/31 07:00:43;;;;;;;8.80;4.60;;;;;;;8.41;78.95;100090.19;5317897;26;34591;-91
2021/12/31 07:03:13;;;;;;;9.45;6.70;;;;;;;8.15;79.21;100087.50;5317813;26;34116;-91
2021/12/31 07:05:44;;;;;;;6.57;4.25;;;;;;;8.02;79.25;100094.37;5318575;26;35277;-90
2021/12/31 07:08:13;;;;;;;9.27;4.90;;;;;;;7.87;80.19;100102.03;5345333;26;33526;-91
2021/12/31 07:10:42;;;;;;;7.25;4.80;;;;;;;7.76;81.83;100098.56;5338628;26;33683;-91
2021/12/31 07:13:11;;;;;;;6.90;4.45;;;;;;;7.76;82.99;100106.31;5318721;26;33944;-91
2021/12/31 07:15:41;;;;;;;7.35;4.35;;;;;;;7.84;83.01;100097.72;5318262;26;34344;-90
2021/12/31 07:18:10;;;;;;;7.05;4.68;;;;;;;8.15;82.23;100117.66;5318499;26;33609;-90
2021/12/31 07:20:39;;;;;;;7.72;4.18;;;;;;;8.40;81.91;100116.91;5324821;26;34848;-90
2021/12/31 07:23:11;;;;;;;6.32;4.35;;;;;;;8.45;82.08;100119.50;5317753;26;34108;-90
2021/12/31 07:25:44;;;;;;;6.60;4.20;;;;;;;8.73;80.79;100129.03;5339138;26;33928;-91
2021/12/31 07:28:15;;;;;;;6.80;4.40;;;;;;;8.75;80.78;100127.31;5338500;26;33806;-92
2021/12/31 07:30:44;;;;;;;7.90;4.85;;;;;;;8.83;80.95;100132.50;5318492;26;32977;-92
2021/12/31 07:33:18;;;;;;;6.00;3.78;;;;;;;8.96;80.61;100138.53;5319432;26;34714;-91
2021/12/31 07:35:47;;;;;;;7.75;5.28;;;;;;;9.07;80.14;100128.19;5345307;26;33619;-91
2021/12/31 07:38:20;;;;;;;7.12;4.50;;;;;;;9.03;80.13;100135.09;5338054;26;33565;-91
2021/12/31 07:40:51;;;;;;;7.00;5.12;;;;;;;9.24;79.54;100139.41;5318162;26;33659;-90
2021/12/31 07:43:22;;;;;;;8.20;4.30;;;;;;;9.23;80.12;100141.97;5318598;26;34825;-92
2021/12/31 07:45:51;;;;;;;7.35;4.72;;;;;;;9.32;80.09;100144.56;5318382;26;35127;-91
2021/12/31 07:48:21;;;;;;;5.75;4.57;;;;;;;9.30;80.42;100143.69;5324279;26;34501;-90
2021/12/31 07:50:51;;;;;;;7.10;4.62;;;;;;;9.38;80.59;100136.81;5318401;26;33885;-90
2021/12/31 07:53:22;;;;;;;7.05;4.62;;;;;;;9.39;81.04;100138.53;5317852;26;33369;-92
2021/12/31 07:55:51;;;;;;;6.17;4.10;;;;;;;9.32;81.63;100134.22;5321595;26;33130;-91
2021/12/31 07:58:20;;;;;;;7.35;4.78;;;;;;;9.31;81.93;100135.94;5317726;26;32888;-92
2021/12/31 08:00:50;;;;;;;6.40;4.47;;;;;;;9.36;81.66;100136.81;5321396;26;33918;-92
2021/12/31 08:03:19;;;;;;;7.82;4.00;;;;;;;9.49;81.11;100135.03;5324547;26;34479;-91
2021/12/31 08:05:48;;;;;;;5.97;4.47;;;;;;;9.37;82.02;100141.13;5337609;26;34760;-92
2021/12/31 08:08:17;;;;;;;8.52;4.37;;;;;;;9.52;81.60;100145.44;5338815;26;34750;-92
2021/12/31 08:10:47;;;;;;;5.90;3.85;;;;;;;9.70;80.76;100149.69;5318176;26;34513;-92
2021/12/31 08:13:25;;;;;;;6.18;4.10;;;;;;;9.84;80.81;100147.06;5319230;26;32410;-91
2021/12/31 08:15:54;;;;;;;6.62;4.50;;;;;;;10.00;80.14;100153.94;5345169;26;33738;-92
2021/12/31 08:18:26;;;;;;;6.65;3.85;;;;;;;10.07;80.59;100146.97;5318030;26;33931;-92
2021/12/31 08:37:03;;;;;;;7.25;4.05;;;;;;;10.85;78.55;100157.00;5145855;27;36655;-90
2021/12/31 08:40:47;;;;;;;4.97;2.92;;;;;;;10.82;79.39;100150.94;5070462;28;34471;-91
2021/12/31 08:47:41;;;;;;;4.28;2.87;;;;;;;11.21;78.09;100154.09;5068184;28;34113;-92
2021/12/31 08:51:15;;;;;;;5.37;3.05;;;;;;;10.88;79.23;100143.13;5079937;28;35914;-91
2021/12/31 08:54:42;;;;;;;6.07;3.28;;;;;;;11.17;78.11;100142.03;5142008;27;34312;-91
2021/12/31 09:17:12;;;;;;;4.00;2.12;;;;;;;12.00;75.90;100154.25;5052312;28;34814;-90
2021/12/31 09:20:29;;;;;;;4.07;2.85;;;;;;;12.17;75.24;100150.53;5099886;28;36530;-90
2021/12/31 09:23:16;;;;;;;5.50;2.65;;;;;;;12.13;75.56;100161.03;5101492;28;32022;-91
2021/12/31 09:25:49;;;;;;;5.07;3.10;;;;;;;12.65;72.77;100152.53;5100124;28;33404;-90
2021/12/31 09:28:19;;;;;;;4.25;2.65;;;;;;;12.60;73.31;100159.53;5100103;28;35617;-90
2021/12/31 09:30:50;;;;;;;4.57;2.70;;;;;;;12.46;73.80;100149.31;5100996;28;33820;-91
2021/12/31 09:33:23;;;;;;;3.35;1.90;;;;;;;12.64;73.09;100152.56;5097793;28;34010;-90
2021/12/31 09:35:53;;;;;;;4.53;2.60;;;;;;;12.97;71.91;100149.44;5119285;28;34051;-91
2021/12/31 09:38:23;;;;;;;5.43;2.08;;;;;;;12.75;73.19;100146.28;5118161;28;32930;-91
2021/12/31 09:40:55;;;;;;;3.45;2.10;;;;;;;12.97;72.23;100148.56;5118736;28;33605;-90
2021/12/31 09:43:25;;;;;;;5.40;2.28;;;;;;;13.22;70.49;100146.44;5137662;27;32559;-92
2021/12/31 09:48:44;;;;;;;2.35;2.03;;;;;;;13.19;71.33;100134.34;5306635;27;33372;-90
2021/12/31 09:51:19;;;;;;;3.80;2.10;;;;;;;13.37;71.01;100143.59;5299440;27;34071;-91
2021/12/31 09:54:01;;;;;;;3.15;1.85;;;;;;;13.60;69.88;100155.37;5312812;27;32890;-91
2021/12/31 09:56:40;;;;;;;4.75;2.95;;;;;;;13.45;71.89;100151.28;5293861;27;35160;-90
2021/12/31 09:59:11;;;;;;;2.45;1.80;;;;;;;13.66;70.33;100153.50;5291133;27;34107;-91
2021/12/31 10:01:48;;;;;;;3.37;2.12;;;;;;;13.23;72.01;100149.00;5293086;27;32878;-91
2021/12/31 10:07:12;;;;;;;3.92;2.03;;;;;;;13.36;70.87;100149.72;5319546;27;34638;-92
2021/12/31 10:10:20;;;;;;;3.75;1.98;;;;;;;13.57;70.58;100135.41;5313853;27;34123;-91
2021/12/31 10:13:01;;;;;;;2.90;1.75;;;;;;;13.56;70.88;100131.13;5292951;27;32984;-91
2021/12/31 10:19:09;;;;;;;2.95;1.58;;;;;;;13.90;68.87;100127.88;5293830;27;36807;-89
2021/12/31 10:21:59;;;;;;;2.83;1.85;;;;;;;13.97;68.24;100119.03;5335705;26;34440;-88
2021/12/31 10:24:39;;;;;;;3.28;2.97;;;;;;;13.67;70.17;100117.88;5334970;26;32481;-90
2021/12/31 10:27:23;;;;;;;3.50;1.50;;;;;;;13.68;69.65;100114.38;5316542;26;32830;-90
2021/12/31 10:30:03;;;;;;;2.35;1.30;;;;;;;14.04;68.58;100119.78;5314879;26;36882;-90
2021/12/31 10:32:33;;;;;;;1.33;1.20;;;;;;;14.06;68.58;100118.84;5335774;26;34040;-90
2021/12/31 10:35:09;;;;;;;2.87;2.23;;;;;;;14.07;68.76;100109.25;5315935;26;34045;-91
2021/12/31 10:37:47;;;;;;;2.12;1.58;;;;;;;13.86;69.15;100111.41;5321943;26;34060;-91
2021/12/31 10:40:27;;;;;;;3.03;1.67;;;;;;;14.01;68.37;100107.66;5316698;26;33857;-90
2021/12/31 10:43:11;;;;;;;0.88;0.88;;;;;;;14.08;68.22;100106.59;5315594;26;34302;-91
2021/12/31 10:45:40;;;;;;;3.40;1.83;;;;;;;13.92;68.47;100110.44;5315899;26;32612;-92
2021/12/31 10:48:12;;;;;;;2.25;1.75;;;;;;;13.97;68.75;100111.19;5335425;26;33720;-90
2021/12/31 10:50:41;;;;;;;;;;;;;;;13.92;68.78;100110.44;5337059;26;33961;-91
2021/12/31 10:53:12;;;;;;;1.77;1.23;;;;;;;14.00;68.19;100118.94;5344942;26;34728;-90
2021/12/31 10:55:41;;;;;;;;;;;;;;;14.07;67.96;100122.31;5337174;26;34074;-90
2021/12/31 10:58:11;;;;;;;1.98;1.50;;;;;;;13.98;68.75;100120.72;5333305;26;33168;-90
2021/12/31 11:00:42;;;;;;;1.57;1.27;;;;;;;14.03;68.10;100123.25;5335450;26;33030;-91
2021/12/31 11:03:12;;;;;;;1.67;1.30;;;;;;;14.11;68.50;100131.78;5315418;26;33926;-90
2021/12/31 11:05:41;;;;;;;4.13;2.40;;;;;;;14.25;68.17;100123.66;5322144;26;34611;-90
2021/12/31 11:08:13;;;;;;;1.83;1.40;;;;;;;14.32;67.27;100119.16;5315374;26;33646;-90
2021/12/31 11:10:42;;;;;;;1.70;1.20;;;;;;;14.42;66.34;100113.69;5336345;26;33869;-90
2021/12/31 11:13:14;;;;;;;3.92;2.00;;;;;;;14.65;66.42;100107.16;5315650;26;34126;-92
2021/12/31 11:15:44;;;;;;;2.42;1.65;;;;;;;14.58;66.39;100110.81;5314990;26;34171;-90
2021/12/31 11:18:18;;;;;;;1.50;1.10;;;;;;;14.81;65.69;100108.53;5318925;26;34899;-90
2021/12/31 11:20:48;;;;;;;2.12;1.37;;;;;;;14.78;66.15;100098.13;5343554;26;33151;-90
2021/12/31 11:23:18;;;;;;;2.90;1.70;;;;;;;14.72;65.89;100106.13;5337780;26;34104;-90
2021/12/31 11:25:51;;;;;;;1.70;1.20;;;;;;;14.78;65.00;100100.72;5338189;26;33324;-90
2021/12/31 11:28:25;;;;;;;1.20;1.10;;;;;;;14.78;66.06;100103.34;5338128;26;32942;-90
2021/12/31 11:30:56;;;;;;;1.52;1.08;;;;;;;14.84;65.44;100103.22;5337477;26;35158;-92
2021/12/31 11:33:30;;;;;;;1.05;0.95;;;;;;;15.00;65.13;100097.59;5344522;26;33614;-89
2021/12/31 11:36:02;;;;;;;2.30;1.33;;;;;;;15.10;64.84;100099.06;5337553;26;34349;-90
2021/12/31 11:38:50;;;;;;;2.50;1.40;;;;;;;15.25;63.60;100096.09;5309086;26;32212;-89
2021/12/31 11:41:36;;;;;;;1.92;1.37;;;;;;;15.26;63.69;100097.78;5337664;26;33944;-90
2021/12/31 11:44:07;;;;;;;3.95;1.25;;;;;;;15.03;65.04;100102.75;5338174;26;34726;-89
2021/12/31 11:46:40;;;;;;;2.03;1.00;;;;;;;15.08;64.73;100093.91;5318019;26;32005;-89
2021/12/31 11:49:20;;;;;;;5.18;2.00;;;;;;;15.14;64.43;100092.88;5344576;26;34112;-90
2021/12/31 11:52:06;;;;;;;1.42;1.23;;;;;;;15.00;64.52;100092.38;5339142;26;34605;-90
2021/12/31 11:54:38;;;;;;;3.95;1.80;;;;;;;14.97;65.03;100097.69;5318426;26;34041;-89
2021/12/31 11:57:20;;;;;;;2.00;1.12;;;;;;;15.08;64.17;100093.91;5338433;26;33484;-91
2021/12/31 11:59:51;;;;;;;1.60;1.20;;;;;;;14.99;64.62;100095.91;5317973;26;34060;-89
2021/12/31 12:02:21;;;;;;;3.28;1.60;;;;;;;14.65;64.88;100094.09;5336552;26;33766;-92
2021/12/31 12:05:15;;;;;;;3.47;1.77;;;;;;;14.68;65.16;100087.03;5339984;26;34866;-89
2021/12/31 12:07:47;;;;;;;2.55;1.45;;;;;;;14.63;65.18;100085.44;5341327;26;33780;-89
2021/12/31 12:10:28;;;;;;;3.10;1.55;;;;;;;14.79;64.94;100081.56;5337321;26;32732;-92
2021/12/31 12:13:21;;;;;;;2.95;1.55;;;;;;;14.75;65.36;100081.69;5337016;26;33322;-90
2021/12/31 12:15:50;;;;;;;3.00;1.62;;;;;;;14.77;64.74;100083.34;5336706;26;33891;-90
2021/12/31 12:18:53;;;;;;;3.40;1.92;;;;;;;14.44;65.79;100083.22;5334897;26;34153;-90
2021/12/31 12:21:36;;;;;;;2.30;1.37;;;;;;;14.36;66.26;100085.16;5336549;26;33322;-90
2021/12/31 12:24:07;;;;;;;2.72;1.55;;;;;;;14.66;64.95;100080.13;5343742;26;33476;-89
2021/12/31 12:26:37;;;;;;;;;;;;;;;14.63;65.17;100077.59;5322094;26;34118;-90
2021/12/31 12:29:06;;;;;;;4.12;2.10;;;;;;;14.71;64.71;100079.16;5337921;26;34118;-90
2021/12/31 12:31:39;;;;;;;3.30;1.60;;;;;;;14.70;65.00;100073.94;5318335;26;34347;-90
2021/12/31 12:34:10;;;;;;;2.28;1.20;;;;;;;14.47;65.81;100069.22;5318172;26;31933;-90
2021/12/31 12:36:42;;;;;;;2.35;1.60;;;;;;;14.62;65.93;100068.06;5337860;26;33157;-89
2021/12/31 12:39:12;;;;;;;4.00;2.55;;;;;;;14.66;65.39;100067.06;5343934;26;33750;-89
2021/12/31 12:41:42;;;;;;;3.72;1.70;;;;;;;14.74;65.34;100065.16;5317894;26;33946;-90
2021/12/31 12:44:11;;;;;;;1.80;1.20;;;;;;;14.89;65.05;100064.78;5338658;26;33383;-92